createdAt,value
2019-02-19T00:00:07.375Z,28.30
2019-02-19T00:01:07.388Z,27.70
2019-02-19T00:02:07.400Z,29.70
2019-02-19T00:03:07.415Z,25.40
2019-02-19T00:04:07.426Z,28.70
2019-02-19T00:05:07.688Z,33.10
2019-02-19T00:06:07.457Z,27.60
2019-02-19T00:07:07.462Z,26.10
2019-02-19T00:08:07.474Z,27.40
2019-02-19T00:09:07.487Z,27.40
2019-02-19T00:10:07.498Z,30.50
2019-02-19T00:11:07.513Z,27.20
2019-02-19T00:12:07.522Z,27.20
2019-02-19T00:13:07.535Z,26.00
2019-02-19T00:14:07.545Z,25.00
2019-02-19T00:15:08.599Z,24.80
2019-02-19T00:16:07.573Z,32.10
2019-02-19T00:17:07.586Z,27.20
2019-02-19T00:18:07.599Z,30.30
2019-02-19T00:19:07.610Z,28.80
2019-02-19T00:20:07.619Z,30.00
2019-02-19T00:21:07.631Z,27.30
2019-02-19T00:22:07.644Z,28.60
2019-02-19T00:23:07.664Z,27.10
2019-02-19T00:24:07.674Z,28.50
2019-02-19T00:25:07.933Z,25.90
2019-02-19T00:26:07.694Z,26.30
2019-02-19T00:27:07.707Z,29.20
2019-02-19T00:28:07.720Z,26.00
2019-02-19T00:29:07.729Z,25.00
2019-02-19T00:30:07.738Z,28.40
2019-02-19T00:31:07.754Z,31.50
2019-02-19T00:32:07.768Z,26.70
2019-02-19T00:33:07.777Z,25.80
2019-02-19T00:34:07.790Z,23.80
2019-02-19T00:35:07.804Z,30.50
2019-02-19T00:36:07.819Z,25.40
2019-02-19T00:37:07.827Z,27.60
2019-02-19T00:38:07.840Z,27.40
2019-02-19T00:39:07.850Z,26.80
2019-02-19T00:40:07.862Z,29.90
2019-02-19T00:41:07.873Z,28.30
2019-02-19T00:42:07.889Z,26.90
2019-02-19T00:43:07.901Z,24.30
2019-02-19T00:44:07.913Z,27.60
2019-02-19T00:45:16.273Z,28.50
2019-02-19T00:46:07.937Z,28.00
2019-02-19T00:47:07.948Z,28.10
2019-02-19T00:48:07.957Z,29.10
2019-02-19T00:49:07.970Z,30.00
2019-02-19T00:50:07.983Z,27.00
2019-02-19T00:51:08.002Z,27.10
2019-02-19T00:52:08.007Z,26.80
2019-02-19T00:53:08.047Z,28.80
2019-02-19T00:54:08.036Z,26.20
2019-02-19T00:55:08.045Z,27.70
2019-02-19T00:56:08.054Z,25.40
2019-02-19T00:57:08.070Z,24.60
2019-02-19T00:58:08.078Z,30.20
2019-02-19T00:59:08.089Z,27.20
2019-02-19T01:00:08.361Z,30.90
2019-02-19T01:01:08.116Z,23.10
2019-02-19T01:02:08.129Z,27.30
2019-02-19T01:03:08.145Z,31.50
2019-02-19T01:04:08.155Z,27.20
2019-02-19T01:05:08.165Z,27.50
2019-02-19T01:06:08.175Z,25.80
2019-02-19T01:07:08.190Z,26.30
2019-02-19T01:08:08.200Z,27.70
2019-02-19T01:09:08.212Z,26.20
2019-02-19T01:10:08.226Z,28.30
2019-02-19T01:11:08.237Z,29.30
2019-02-19T01:12:08.250Z,26.10
2019-02-19T01:13:08.262Z,28.30
2019-02-19T01:14:08.272Z,29.70
2019-02-19T01:15:08.283Z,29.50
2019-02-19T01:16:08.295Z,29.10
2019-02-19T01:17:08.307Z,24.20
2019-02-19T01:18:08.322Z,28.40
2019-02-19T01:19:08.334Z,30.50
2019-02-19T01:20:08.595Z,28.20
2019-02-19T01:21:08.353Z,24.90
2019-02-19T01:22:08.369Z,24.30
2019-02-19T01:23:08.381Z,30.50
2019-02-19T01:24:08.395Z,26.60
2019-02-19T01:25:08.405Z,26.60
2019-02-19T01:26:08.416Z,27.70
2019-02-19T01:27:08.427Z,28.70
2019-02-19T01:28:08.440Z,26.00
2019-02-19T01:29:08.453Z,30.10
2019-02-19T01:30:08.463Z,29.80
2019-02-19T01:31:08.479Z,26.10
2019-02-19T01:32:08.489Z,24.40
2019-02-19T01:33:08.500Z,27.60
2019-02-19T01:34:08.515Z,23.00
2019-02-19T01:35:08.528Z,28.20
2019-02-19T01:36:08.537Z,26.50
2019-02-19T01:37:08.548Z,26.90
2019-02-19T01:38:08.561Z,24.10
2019-02-19T01:39:08.570Z,26.70
2019-02-19T01:40:08.993Z,24.20
2019-02-19T01:41:08.595Z,29.10
2019-02-19T01:42:08.606Z,28.20
2019-02-19T01:43:08.620Z,27.70
2019-02-19T01:44:08.633Z,26.90
2019-02-19T01:45:08.969Z,28.90
2019-02-19T01:46:08.656Z,26.10
2019-02-19T01:47:08.666Z,25.50
2019-02-19T01:48:08.678Z,26.90
2019-02-19T01:49:08.690Z,26.90
2019-02-19T01:50:08.702Z,26.60
2019-02-19T01:51:08.712Z,26.40
2019-02-19T01:52:08.727Z,27.10
2019-02-19T01:53:08.736Z,29.70
2019-02-19T01:54:08.751Z,29.00
2019-02-19T01:55:08.763Z,27.90
2019-02-19T01:56:08.774Z,24.40
2019-02-19T01:57:08.787Z,24.80
2019-02-19T01:58:08.798Z,26.60
2019-02-19T01:59:08.808Z,27.10
2019-02-19T02:00:08.819Z,26.40
2019-02-19T02:01:08.832Z,26.10
2019-02-19T02:02:08.843Z,27.00
2019-02-19T02:03:08.871Z,30.20
2019-02-19T02:04:08.905Z,25.60
2019-02-19T02:05:09.133Z,27.90
2019-02-19T02:06:08.941Z,27.20
2019-02-19T02:07:08.955Z,23.90
2019-02-19T02:08:08.940Z,25.90
2019-02-19T02:09:09.004Z,25.60
2019-02-19T02:10:09.007Z,22.70
2019-02-19T02:11:09.000Z,27.60
2019-02-19T02:12:09.027Z,25.20
2019-02-19T02:13:09.017Z,25.10
2019-02-19T02:14:08.995Z,24.90
2019-02-19T02:15:09.002Z,26.90
2019-02-19T02:16:09.010Z,28.10
2019-02-19T02:17:09.026Z,24.20
2019-02-19T02:18:09.034Z,26.10
2019-02-19T02:19:09.048Z,27.50
2019-02-19T02:20:09.059Z,25.20
2019-02-19T02:21:09.066Z,26.40
2019-02-19T02:22:09.084Z,26.60
2019-02-19T02:23:09.091Z,27.90
2019-02-19T02:24:09.106Z,27.30
2019-02-19T02:25:09.116Z,25.60
2019-02-19T02:26:09.127Z,24.80
2019-02-19T02:27:09.142Z,26.00
2019-02-19T02:28:09.150Z,28.10
2019-02-19T02:29:09.162Z,25.00
2019-02-19T02:30:09.176Z,25.40
2019-02-19T02:31:09.190Z,26.20
2019-02-19T02:32:09.197Z,28.60
2019-02-19T02:33:09.209Z,26.70
2019-02-19T02:34:09.223Z,24.90
2019-02-19T02:35:11.270Z,25.70
2019-02-19T02:36:09.251Z,24.80
2019-02-19T02:37:09.261Z,27.20
2019-02-19T02:38:09.270Z,26.80
2019-02-19T02:39:09.285Z,28.50
2019-02-19T02:40:09.301Z,26.00
2019-02-19T02:41:09.309Z,26.80
2019-02-19T02:42:09.320Z,25.10
2019-02-19T02:43:09.329Z,29.30
2019-02-19T02:44:09.340Z,24.70
2019-02-19T02:45:09.600Z,25.40
2019-02-19T02:46:09.372Z,25.80
2019-02-19T02:47:09.375Z,26.60
2019-02-19T02:48:09.388Z,27.10
2019-02-19T02:49:09.403Z,27.50
2019-02-19T02:50:09.413Z,26.10
2019-02-19T02:51:09.423Z,25.90
2019-02-19T02:52:09.433Z,25.80
2019-02-19T02:53:09.444Z,28.50
2019-02-19T02:54:09.455Z,25.40
2019-02-19T02:55:09.472Z,27.00
2019-02-19T02:56:09.482Z,27.20
2019-02-19T02:57:09.498Z,26.00
2019-02-19T02:58:09.506Z,26.50
2019-02-19T02:59:09.515Z,27.20
2019-02-19T03:00:09.777Z,26.70
2019-02-19T03:01:09.540Z,28.10
2019-02-19T03:02:09.553Z,30.70
2019-02-19T03:03:09.563Z,27.50
2019-02-19T03:04:09.579Z,27.30
2019-02-19T03:05:09.594Z,27.20
2019-02-19T03:06:09.602Z,28.10
2019-02-19T03:07:09.611Z,28.20
2019-02-19T03:08:09.622Z,25.10
2019-02-19T03:09:09.635Z,26.90
2019-02-19T03:10:09.646Z,28.40
2019-02-19T03:11:09.657Z,30.80
2019-02-19T03:12:09.670Z,26.00
2019-02-19T03:13:09.686Z,26.30
2019-02-19T03:14:09.695Z,26.20
2019-02-19T03:15:09.705Z,26.00
2019-02-19T03:16:09.718Z,28.20
2019-02-19T03:17:09.729Z,26.60
2019-02-19T03:18:09.742Z,29.60
2019-02-19T03:19:09.757Z,28.00
2019-02-19T03:20:10.012Z,30.10
2019-02-19T03:21:09.776Z,25.30
2019-02-19T03:22:09.786Z,27.10
2019-02-19T03:23:09.801Z,30.10
2019-02-19T03:24:09.812Z,29.30
2019-02-19T03:25:09.826Z,27.20
2019-02-19T03:26:09.836Z,28.90
2019-02-19T03:27:09.848Z,31.40
2019-02-19T03:28:09.858Z,28.90
2019-02-19T03:29:09.871Z,27.30
2019-02-19T03:30:09.892Z,26.60
2019-02-19T03:31:09.900Z,28.50
2019-02-19T03:32:09.911Z,30.20
2019-02-19T03:33:09.978Z,30.30
2019-02-19T03:34:09.955Z,28.00
2019-02-19T03:35:09.942Z,28.30
2019-02-19T03:36:09.954Z,29.70
2019-02-19T03:37:09.962Z,26.10
2019-02-19T03:38:09.977Z,26.10
2019-02-19T03:39:09.986Z,27.30
2019-02-19T03:40:09.998Z,26.30
2019-02-19T03:41:10.008Z,25.70
2019-02-19T03:42:10.022Z,31.30
2019-02-19T03:43:10.034Z,26.50
2019-02-19T03:44:10.044Z,26.30
2019-02-19T03:45:10.307Z,27.30
2019-02-19T03:46:12.463Z,27.00
2019-02-19T03:47:10.083Z,28.60
2019-02-19T03:48:10.092Z,26.70
2019-02-19T03:49:10.111Z,27.30
2019-02-19T03:50:10.122Z,25.80
2019-02-19T03:51:10.127Z,26.60
2019-02-19T03:52:10.136Z,27.20
2019-02-19T03:53:10.151Z,29.10
2019-02-19T03:54:10.193Z,26.70
2019-02-19T03:55:10.175Z,30.10
2019-02-19T03:56:10.187Z,25.30
2019-02-19T03:57:10.197Z,29.50
2019-02-19T03:58:10.211Z,25.50
2019-02-19T03:59:10.226Z,27.70
2019-02-19T04:00:10.234Z,26.30
2019-02-19T04:01:10.251Z,26.40
2019-02-19T04:02:10.257Z,27.20
2019-02-19T04:03:10.269Z,25.50
2019-02-19T04:04:10.302Z,28.00
2019-02-19T04:05:10.292Z,27.60
2019-02-19T04:06:10.302Z,29.10
2019-02-19T04:07:10.322Z,28.10
2019-02-19T04:08:10.328Z,30.70
2019-02-19T04:09:10.338Z,25.00
2019-02-19T04:10:10.351Z,28.10
2019-02-19T04:11:10.360Z,27.70
2019-02-19T04:12:10.375Z,27.30
2019-02-19T04:13:10.383Z,27.80
2019-02-19T04:14:10.404Z,27.50
2019-02-19T04:15:10.791Z,27.80
2019-02-19T04:16:10.427Z,24.60
2019-02-19T04:17:10.430Z,29.80
2019-02-19T04:18:10.442Z,25.00
2019-02-19T04:19:10.456Z,30.90
2019-02-19T04:20:10.475Z,26.60
2019-02-19T04:21:10.479Z,27.10
2019-02-19T04:22:10.493Z,28.80
2019-02-19T04:23:10.501Z,25.40
2019-02-19T04:24:10.510Z,29.50
2019-02-19T04:25:10.773Z,27.60
2019-02-19T04:26:10.538Z,27.30
2019-02-19T04:27:10.548Z,29.30
2019-02-19T04:28:10.559Z,25.40
2019-02-19T04:29:10.571Z,28.00
2019-02-19T04:30:10.581Z,27.90
2019-02-19T04:31:10.598Z,28.20
2019-02-19T04:32:10.606Z,25.20
2019-02-19T04:33:10.617Z,25.10
2019-02-19T04:34:10.634Z,27.50
2019-02-19T04:35:10.643Z,25.40
2019-02-19T04:36:10.653Z,27.30
2019-02-19T04:37:10.671Z,23.00
2019-02-19T04:38:10.730Z,26.80
2019-02-19T04:39:10.762Z,27.00
2019-02-19T04:40:10.954Z,25.20
2019-02-19T04:41:10.752Z,26.10
2019-02-19T04:42:10.754Z,26.00
2019-02-19T04:43:10.820Z,26.00
2019-02-19T04:44:10.808Z,29.80
2019-02-19T04:45:10.826Z,22.50
2019-02-19T04:46:10.815Z,25.80
2019-02-19T04:47:10.812Z,26.00
2019-02-19T04:48:10.809Z,25.80
2019-02-19T04:49:10.805Z,25.80
2019-02-19T04:50:10.815Z,26.60
2019-02-19T04:51:10.846Z,26.50
2019-02-19T04:52:10.838Z,26.70
2019-02-19T04:53:10.852Z,27.50
2019-02-19T04:54:10.863Z,25.80
2019-02-19T04:55:10.873Z,24.70
2019-02-19T04:56:10.885Z,23.70
2019-02-19T04:57:10.894Z,25.90
2019-02-19T04:58:10.907Z,25.10
2019-02-19T04:59:10.921Z,25.80
2019-02-19T05:00:10.937Z,24.70
2019-02-19T05:01:10.945Z,24.60
2019-02-19T05:02:10.955Z,24.90
2019-02-19T05:03:10.966Z,26.40
2019-02-19T05:04:10.977Z,26.40
2019-02-19T05:05:10.989Z,23.80
2019-02-19T05:06:11.003Z,25.20
2019-02-19T05:07:11.015Z,25.90
2019-02-19T05:08:11.025Z,29.60
2019-02-19T05:09:11.038Z,26.30
2019-02-19T05:10:11.055Z,26.50
2019-02-19T05:11:11.058Z,26.30
2019-02-19T05:12:11.077Z,25.00
2019-02-19T05:13:11.083Z,22.00
2019-02-19T05:14:11.095Z,26.40
2019-02-19T05:15:11.109Z,27.20
2019-02-19T05:16:11.133Z,27.00
2019-02-19T05:17:11.129Z,25.30
2019-02-19T05:18:11.145Z,26.50
2019-02-19T05:19:11.161Z,31.00
2019-02-19T05:20:11.164Z,26.60
2019-02-19T05:21:11.178Z,25.30
2019-02-19T05:22:11.189Z,24.50
2019-02-19T05:23:11.199Z,24.90
2019-02-19T05:24:11.208Z,24.00
2019-02-19T05:25:11.220Z,25.70
2019-02-19T05:26:11.232Z,24.90
2019-02-19T05:27:11.251Z,25.80
2019-02-19T05:28:11.261Z,25.50
2019-02-19T05:29:11.268Z,24.20
2019-02-19T05:30:11.280Z,25.10
2019-02-19T05:31:11.292Z,28.50
2019-02-19T05:32:11.301Z,28.20
2019-02-19T05:33:11.311Z,24.00
2019-02-19T05:34:11.324Z,23.80
2019-02-19T05:35:11.336Z,24.00
2019-02-19T05:36:11.409Z,22.90
2019-02-19T05:37:11.360Z,21.90
2019-02-19T05:38:11.370Z,24.80
2019-02-19T05:39:11.386Z,24.80
2019-02-19T05:40:11.397Z,23.50
2019-02-19T05:41:11.411Z,23.40
2019-02-19T05:42:11.419Z,23.80
2019-02-19T05:43:11.430Z,21.30
2019-02-19T05:44:11.440Z,25.60
2019-02-19T05:45:11.704Z,23.10
2019-02-19T05:46:11.465Z,23.40
2019-02-19T05:47:11.483Z,26.00
2019-02-19T05:48:11.488Z,21.90
2019-02-19T05:49:11.502Z,21.20
2019-02-19T05:50:11.513Z,21.60
2019-02-19T05:51:11.523Z,24.50
2019-02-19T05:52:11.536Z,24.20
2019-02-19T05:53:11.547Z,24.60
2019-02-19T05:54:11.561Z,25.70
2019-02-19T05:55:11.570Z,20.70
2019-02-19T05:56:11.580Z,25.30
2019-02-19T05:57:11.591Z,20.80
2019-02-19T05:58:11.605Z,26.20
2019-02-19T05:59:11.619Z,22.00
2019-02-19T06:00:11.929Z,23.10
2019-02-19T06:01:11.640Z,23.00
2019-02-19T06:02:11.654Z,21.90
2019-02-19T06:03:11.662Z,24.00
2019-02-19T06:04:11.673Z,24.80
2019-02-19T06:05:11.688Z,21.40
2019-02-19T06:06:11.698Z,22.90
2019-02-19T06:07:11.710Z,22.10
2019-02-19T06:08:11.720Z,21.00
2019-02-19T06:09:11.732Z,23.40
2019-02-19T06:10:11.743Z,23.00
2019-02-19T06:11:11.758Z,21.10
2019-02-19T06:12:11.769Z,25.10
2019-02-19T06:13:11.782Z,23.10
2019-02-19T06:14:11.793Z,21.60
2019-02-19T06:15:11.803Z,22.90
2019-02-19T06:16:11.811Z,24.30
2019-02-19T06:17:11.825Z,21.70
2019-02-19T06:18:11.848Z,22.90
2019-02-19T06:19:11.853Z,21.70
2019-02-19T06:20:12.113Z,20.90
2019-02-19T06:21:11.877Z,22.60
2019-02-19T06:22:11.888Z,25.50
2019-02-19T06:23:11.901Z,24.10
2019-02-19T06:24:11.911Z,22.20
2019-02-19T06:25:11.923Z,24.60
2019-02-19T06:26:11.959Z,20.50
2019-02-19T06:27:11.950Z,20.10
2019-02-19T06:28:11.957Z,22.90
2019-02-19T06:29:11.971Z,20.00
2019-02-19T06:30:11.981Z,22.20
2019-02-19T06:31:11.994Z,20.30
2019-02-19T06:32:12.006Z,20.50
2019-02-19T06:33:12.026Z,24.80
2019-02-19T06:34:12.035Z,24.70
2019-02-19T06:35:12.041Z,28.90
2019-02-19T06:36:12.049Z,31.00
2019-02-19T06:37:12.067Z,28.60
2019-02-19T06:38:12.074Z,22.60
2019-02-19T06:39:12.087Z,22.40
2019-02-19T06:40:12.351Z,20.80
2019-02-19T06:41:12.112Z,21.80
2019-02-19T06:42:12.124Z,21.20
2019-02-19T06:43:12.137Z,22.70
2019-02-19T06:44:12.150Z,22.40
2019-02-19T06:45:12.162Z,21.60
2019-02-19T06:46:12.176Z,22.10
2019-02-19T06:47:12.702Z,23.90
2019-02-19T06:48:12.198Z,21.90
2019-02-19T06:49:12.221Z,22.90
2019-02-19T06:50:12.223Z,22.30
2019-02-19T06:51:12.237Z,19.00
2019-02-19T06:52:12.248Z,22.20
2019-02-19T06:53:12.263Z,21.20
2019-02-19T06:54:12.275Z,21.60
2019-02-19T06:55:12.287Z,23.30
2019-02-19T06:56:12.299Z,21.70
2019-02-19T06:57:12.316Z,19.90
2019-02-19T06:58:12.325Z,21.00
2019-02-19T06:59:12.335Z,19.20
2019-02-19T07:00:12.596Z,21.70
2019-02-19T07:01:12.363Z,21.00
2019-02-19T07:02:12.373Z,19.60
2019-02-19T07:03:12.387Z,23.00
2019-02-19T07:04:12.397Z,22.50
2019-02-19T07:05:12.412Z,24.80
2019-02-19T07:06:12.425Z,23.80
2019-02-19T07:07:12.438Z,20.70
2019-02-19T07:08:12.449Z,20.60
2019-02-19T07:09:12.460Z,21.90
2019-02-19T07:10:12.482Z,24.60
2019-02-19T07:11:12.515Z,20.90
2019-02-19T07:12:12.564Z,20.80
2019-02-19T07:13:12.571Z,22.30
2019-02-19T07:14:12.561Z,18.90
2019-02-19T07:15:12.565Z,21.80
2019-02-19T07:16:12.632Z,21.20
2019-02-19T07:17:15.727Z,24.40
2019-02-19T07:18:12.626Z,21.00
2019-02-19T07:19:12.627Z,20.60
2019-02-19T07:20:12.882Z,22.10
2019-02-19T07:21:12.622Z,16.90
2019-02-19T07:22:12.633Z,19.30
2019-02-19T07:23:12.641Z,19.70
2019-02-19T07:24:12.654Z,19.90
2019-02-19T07:25:12.669Z,20.50
2019-02-19T07:26:12.683Z,17.70
2019-02-19T07:27:12.695Z,20.60
2019-02-19T07:28:12.706Z,21.10
2019-02-19T07:29:12.723Z,19.30
2019-02-19T07:30:12.737Z,19.70
2019-02-19T07:31:12.751Z,20.80
2019-02-19T07:32:12.765Z,18.90
2019-02-19T07:33:12.779Z,22.50
2019-02-19T07:34:12.796Z,20.00
2019-02-19T07:35:12.801Z,23.20
2019-02-19T07:36:12.815Z,20.00
2019-02-19T07:37:12.833Z,20.90
2019-02-19T07:38:12.841Z,17.90
2019-02-19T07:39:12.858Z,19.30
2019-02-19T07:40:12.871Z,18.30
2019-02-19T07:41:12.885Z,19.10
2019-02-19T07:42:12.899Z,18.80
2019-02-19T07:43:12.916Z,20.00
2019-02-19T07:44:12.922Z,20.00
2019-02-19T07:45:12.941Z,18.80
2019-02-19T07:46:12.954Z,18.20
2019-02-19T07:47:12.967Z,19.70
2019-02-19T07:48:12.980Z,19.80
2019-02-19T07:49:12.996Z,20.40
2019-02-19T07:50:13.008Z,18.20
2019-02-19T07:51:13.024Z,18.70
2019-02-19T07:52:13.041Z,22.50
2019-02-19T07:53:13.053Z,18.50
2019-02-19T07:54:13.066Z,16.90
2019-02-19T07:55:13.080Z,17.50
2019-02-19T07:56:13.092Z,15.70
2019-02-19T07:57:13.107Z,18.60
2019-02-19T07:58:13.123Z,19.50
2019-02-19T07:59:13.136Z,20.30
2019-02-19T08:00:13.151Z,17.90
2019-02-19T08:01:13.164Z,18.10
2019-02-19T08:02:13.179Z,18.20
2019-02-19T08:03:13.197Z,16.40
2019-02-19T08:04:13.210Z,18.60
2019-02-19T08:05:13.224Z,18.10
2019-02-19T08:06:13.252Z,14.40
2019-02-19T08:07:13.251Z,22.30
2019-02-19T08:08:13.266Z,18.20
2019-02-19T08:09:13.283Z,16.50
2019-02-19T08:10:13.295Z,16.30
2019-02-19T08:11:13.312Z,16.70
2019-02-19T08:12:13.328Z,17.20
2019-02-19T08:13:13.344Z,19.10
2019-02-19T08:14:13.358Z,16.40
2019-02-19T08:15:13.369Z,18.60
2019-02-19T08:16:13.384Z,14.80
2019-02-19T08:17:13.402Z,14.90
2019-02-19T08:18:13.416Z,16.70
2019-02-19T08:19:13.435Z,15.20
2019-02-19T08:20:15.993Z,15.00
2019-02-19T08:21:13.467Z,16.80
2019-02-19T08:22:13.480Z,15.70
2019-02-19T08:23:13.495Z,16.10
2019-02-19T08:24:13.510Z,14.50
2019-02-19T08:25:13.527Z,17.20
2019-02-19T08:26:13.541Z,16.40
2019-02-19T08:27:13.557Z,17.00
2019-02-19T08:28:13.577Z,16.00
2019-02-19T08:29:14.100Z,14.90
2019-02-19T08:30:13.609Z,18.30
2019-02-19T08:31:13.625Z,17.10
2019-02-19T08:32:13.637Z,15.00
2019-02-19T08:33:13.657Z,17.10
2019-02-19T08:34:13.671Z,16.60
2019-02-19T08:35:13.684Z,18.80
2019-02-19T08:36:13.702Z,19.10
2019-02-19T08:37:13.716Z,16.70
2019-02-19T08:38:13.733Z,15.30
2019-02-19T08:39:13.757Z,15.70
2019-02-19T08:40:13.768Z,16.70
2019-02-19T08:41:13.784Z,14.30
2019-02-19T08:42:13.803Z,16.40
2019-02-19T08:43:13.814Z,15.60
2019-02-19T08:44:13.832Z,17.50
2019-02-19T08:45:13.848Z,18.20
2019-02-19T08:46:13.871Z,19.20
2019-02-19T08:47:13.885Z,15.80
2019-02-19T08:48:13.911Z,18.50
2019-02-19T08:49:13.915Z,15.40
2019-02-19T08:50:13.932Z,16.50
2019-02-19T08:51:13.956Z,17.50
2019-02-19T08:52:13.971Z,15.50
2019-02-19T08:53:14.004Z,15.30
2019-02-19T08:54:14.006Z,16.90
2019-02-19T08:55:14.018Z,16.80
2019-02-19T08:56:14.031Z,16.80
2019-02-19T08:57:14.051Z,17.90
2019-02-19T08:58:14.068Z,18.00
2019-02-19T08:59:14.088Z,18.00
2019-02-19T09:00:14.106Z,19.00
2019-02-19T09:01:14.124Z,18.50
2019-02-19T09:02:14.143Z,17.50
2019-02-19T09:03:14.160Z,16.40
2019-02-19T09:04:14.173Z,18.90
2019-02-19T09:05:14.192Z,20.60
2019-02-19T09:06:14.209Z,19.10
2019-02-19T09:07:14.226Z,17.40
2019-02-19T09:08:14.242Z,20.40
2019-02-19T09:09:14.263Z,16.60
2019-02-19T09:10:14.276Z,18.90
2019-02-19T09:11:14.297Z,16.60
2019-02-19T09:12:14.315Z,18.20
2019-02-19T09:13:14.350Z,17.80
2019-02-19T09:14:14.423Z,16.70
2019-02-19T09:15:14.418Z,17.70
2019-02-19T09:16:14.418Z,18.00
2019-02-19T09:17:14.434Z,17.70
2019-02-19T09:18:14.484Z,19.70
2019-02-19T09:19:14.495Z,18.80
2019-02-19T09:20:14.479Z,18.20
2019-02-19T09:21:14.477Z,18.10
2019-02-19T09:22:14.494Z,20.10
2019-02-19T09:23:14.507Z,20.60
2019-02-19T09:24:14.524Z,19.00
2019-02-19T09:25:14.544Z,19.50
2019-02-19T09:26:14.566Z,21.60
2019-02-19T09:27:14.585Z,19.70
2019-02-19T09:28:14.606Z,19.30
2019-02-19T09:29:14.619Z,20.10
2019-02-19T09:30:14.633Z,22.60
2019-02-19T09:31:14.651Z,17.60
2019-02-19T09:32:14.671Z,23.20
2019-02-19T09:33:14.690Z,21.90
2019-02-19T09:34:14.705Z,21.30
2019-02-19T09:35:14.726Z,21.10
2019-02-19T09:36:14.741Z,21.10
2019-02-19T09:37:14.766Z,21.90
2019-02-19T09:38:14.777Z,23.10
2019-02-19T09:39:14.799Z,22.60
2019-02-19T09:40:14.822Z,19.70
2019-02-19T09:41:14.836Z,20.60
2019-02-19T09:42:14.852Z,21.80
2019-02-19T09:43:14.868Z,24.90
2019-02-19T09:44:14.887Z,23.70
2019-02-19T09:45:14.904Z,23.50
2019-02-19T09:46:14.925Z,22.90
2019-02-19T09:47:14.973Z,21.90
2019-02-19T09:48:14.960Z,24.70
2019-02-19T09:49:14.978Z,22.10
2019-02-19T09:50:14.997Z,21.30
2019-02-19T09:51:15.018Z,22.00
2019-02-19T09:52:15.034Z,24.90
2019-02-19T09:53:15.052Z,22.40
2019-02-19T09:54:15.070Z,26.90
2019-02-19T09:55:15.086Z,22.70
2019-02-19T09:56:15.104Z,22.40
2019-02-19T09:57:15.129Z,24.50
2019-02-19T09:58:15.142Z,26.00
2019-02-19T09:59:15.170Z,22.00
2019-02-19T10:00:15.181Z,22.70
2019-02-19T10:01:15.199Z,23.90
2019-02-19T10:02:15.218Z,21.70
2019-02-19T10:03:15.232Z,22.60
2019-02-19T10:04:15.252Z,24.70
2019-02-19T10:05:15.269Z,24.80
2019-02-19T10:06:15.291Z,23.70
2019-02-19T10:07:15.309Z,23.90
2019-02-19T10:08:15.327Z,25.30
2019-02-19T10:09:15.344Z,25.20
2019-02-19T10:10:15.362Z,23.30
2019-02-19T10:11:15.382Z,24.90
2019-02-19T10:12:15.397Z,24.30
2019-02-19T10:13:15.422Z,25.30
2019-02-19T10:14:15.436Z,23.30
2019-02-19T10:15:15.453Z,24.20
2019-02-19T10:16:15.477Z,26.50
2019-02-19T10:17:15.491Z,30.00
2019-02-19T10:18:15.509Z,24.90
2019-02-19T10:19:15.529Z,27.40
2019-02-19T10:20:15.547Z,26.50
2019-02-19T10:21:15.566Z,23.10
2019-02-19T10:22:15.585Z,25.30
2019-02-19T10:23:15.602Z,25.30
2019-02-19T10:24:15.627Z,23.10
2019-02-19T10:25:15.640Z,22.00
2019-02-19T10:26:15.657Z,25.90
2019-02-19T10:27:15.673Z,26.00
2019-02-19T10:28:15.690Z,27.20
2019-02-19T10:29:15.708Z,27.90
2019-02-19T10:30:15.730Z,24.10
2019-02-19T10:31:15.752Z,25.50
2019-02-19T10:32:15.767Z,26.70
2019-02-19T10:33:15.786Z,26.00
2019-02-19T10:34:15.807Z,27.40
2019-02-19T10:35:15.820Z,25.70
2019-02-19T10:36:15.841Z,26.20
2019-02-19T10:37:15.885Z,26.80
2019-02-19T10:38:15.877Z,24.80
2019-02-19T10:39:15.909Z,28.70
2019-02-19T10:40:15.913Z,26.40
2019-02-19T10:41:15.931Z,24.60
2019-02-19T10:42:15.951Z,25.10
2019-02-19T10:43:15.975Z,27.10
2019-02-19T10:44:15.987Z,28.60
2019-02-19T10:45:16.005Z,27.70
2019-02-19T10:46:16.028Z,22.60
2019-02-19T10:47:16.043Z,25.10
2019-02-19T10:48:19.052Z,23.80
2019-02-19T10:49:16.076Z,27.70
2019-02-19T10:50:16.097Z,27.50
2019-02-19T10:51:16.131Z,24.90
2019-02-19T10:52:16.134Z,25.70
2019-02-19T10:53:16.151Z,25.60
2019-02-19T10:54:16.171Z,26.60
2019-02-19T10:55:16.192Z,26.50
2019-02-19T10:56:16.287Z,25.60
2019-02-19T10:57:16.292Z,29.10
2019-02-19T10:58:22.462Z,27.70
2019-02-19T10:59:16.283Z,25.20
2019-02-19T11:00:16.350Z,29.50
2019-02-19T11:01:16.350Z,26.90
2019-02-19T11:02:16.355Z,25.60
2019-02-19T11:03:16.367Z,23.70
2019-02-19T11:04:16.354Z,25.90
2019-02-19T11:05:16.371Z,27.30
2019-02-19T11:06:16.390Z,23.10
2019-02-19T11:07:16.407Z,24.20
2019-02-19T11:08:16.423Z,25.40
2019-02-19T11:09:16.442Z,26.90
2019-02-19T11:10:16.464Z,24.40
2019-02-19T11:11:16.478Z,27.10
2019-02-19T11:12:16.496Z,24.80
2019-02-19T11:13:16.513Z,25.90
2019-02-19T11:14:16.536Z,25.60
2019-02-19T11:15:17.489Z,26.10
2019-02-19T11:16:16.575Z,26.10
2019-02-19T11:17:16.594Z,25.80
2019-02-19T11:18:16.617Z,23.50
2019-02-19T11:19:16.636Z,25.50
2019-02-19T11:20:16.649Z,26.30
2019-02-19T11:21:19.750Z,26.80
2019-02-19T11:22:16.685Z,24.50
2019-02-19T11:23:16.708Z,26.00
2019-02-19T11:24:16.726Z,25.90
2019-02-19T11:25:16.743Z,24.70
2019-02-19T11:26:16.762Z,25.40
2019-02-19T11:27:16.943Z,22.80
2019-02-19T11:28:16.817Z,25.00
2019-02-19T11:29:16.817Z,22.20
2019-02-19T11:30:16.844Z,22.40
2019-02-19T11:31:16.857Z,26.00
2019-02-19T11:32:16.877Z,23.70
2019-02-19T11:33:16.894Z,23.10
2019-02-19T11:34:16.915Z,22.20
2019-02-19T11:35:16.932Z,23.90
2019-02-19T11:36:16.948Z,20.30
2019-02-19T11:37:16.983Z,23.40
2019-02-19T11:38:16.989Z,21.30
2019-02-19T11:39:17.012Z,22.90
2019-02-19T11:40:17.029Z,22.80
2019-02-19T11:41:17.049Z,19.90
2019-02-19T11:42:17.066Z,19.20
2019-02-19T11:43:17.086Z,19.30
2019-02-19T11:44:17.105Z,22.00
2019-02-19T11:45:17.135Z,21.00
2019-02-19T11:46:17.144Z,20.90
2019-02-19T11:47:17.161Z,22.10
2019-02-19T11:48:19.102Z,20.80
2019-02-19T11:49:17.199Z,20.30
2019-02-19T11:50:17.217Z,20.60
2019-02-19T11:51:17.242Z,24.10
2019-02-19T11:52:17.266Z,21.20
2019-02-19T11:53:17.276Z,22.20
2019-02-19T11:54:17.296Z,23.00
2019-02-19T11:55:17.316Z,24.20
2019-02-19T11:56:17.331Z,22.60
2019-02-19T11:57:17.353Z,21.00
2019-02-19T11:58:17.376Z,22.90
2019-02-19T11:59:17.392Z,22.30
2019-02-19T12:00:17.408Z,23.30
2019-02-19T12:01:17.428Z,19.70
2019-02-19T12:02:17.445Z,20.30
2019-02-19T12:03:17.469Z,19.50
2019-02-19T12:04:17.485Z,21.10
2019-02-19T12:05:17.528Z,20.60
2019-02-19T12:06:17.523Z,17.40
2019-02-19T12:07:17.540Z,20.70
2019-02-19T12:08:17.601Z,19.00
2019-02-19T12:09:17.577Z,21.80
2019-02-19T12:10:17.598Z,23.20
2019-02-19T12:11:17.617Z,19.40
2019-02-19T12:12:17.638Z,18.70
2019-02-19T12:13:17.653Z,22.60
2019-02-19T12:14:17.673Z,20.50
2019-02-19T12:15:19.224Z,20.90
2019-02-19T12:16:17.716Z,21.80
2019-02-19T12:17:17.727Z,19.10
2019-02-19T12:18:17.747Z,19.80
2019-02-19T12:19:17.766Z,21.00
2019-02-19T12:20:17.782Z,18.20
2019-02-19T12:21:17.802Z,17.80
2019-02-19T12:22:17.820Z,22.30
2019-02-19T12:23:17.843Z,20.20
2019-02-19T12:24:17.862Z,22.00
2019-02-19T12:25:17.879Z,20.20
2019-02-19T12:26:17.897Z,19.20
2019-02-19T12:27:17.920Z,20.20
2019-02-19T12:28:17.935Z,17.10
2019-02-19T12:29:17.954Z,25.70
2019-02-19T12:30:17.970Z,21.70
2019-02-19T12:31:17.990Z,24.50
2019-02-19T12:32:18.206Z,22.90
2019-02-19T12:33:18.029Z,22.00
2019-02-19T12:34:18.049Z,22.20
2019-02-19T12:35:18.072Z,19.90
2019-02-19T12:36:18.167Z,21.20
2019-02-19T12:37:18.165Z,21.10
2019-02-19T12:38:18.170Z,21.20
2019-02-19T12:39:18.176Z,20.00
2019-02-19T12:40:18.230Z,21.00
2019-02-19T12:41:18.225Z,21.60
2019-02-19T12:42:18.234Z,20.20
2019-02-19T12:43:18.237Z,20.90
2019-02-19T12:44:18.243Z,26.30
2019-02-19T12:45:18.262Z,20.50
2019-02-19T12:46:18.283Z,23.20
2019-02-19T12:47:18.301Z,22.40
2019-02-19T12:48:18.322Z,20.90
2019-02-19T12:49:18.341Z,21.80
2019-02-19T12:50:18.362Z,21.00
2019-02-19T12:51:26.104Z,27.30
2019-02-19T12:52:18.395Z,23.60